RYR159M EDDK-LEPA
Flight info
| Callsign | RYR159M |
|---|---|
| Flight time | N/A |
| Altitude | 37000 |
| Route | NVO2D NVO Y868 NAVAK Z283 SOPOK DCT ROUSY DCT GTQ DCT POGOL DCT LASAT DCT MOROK DCT GILIR DCT GEVEA DCT INCUS DCT BALSI DCT RETNO DCT TUPOX DCT MTG DCT DIVKO DCT VATIR DCT PIVUS DCT BODEQ DCT VERSO L129 LUNIK |
| Aircraft | A320/M-SDE3FGHIRWY/LB1 |
Departure
| Time | 2026-04-23 19:26 |
|---|---|
| Airport | Cologne Bonn Airport (EDDK) |
Arrival
| Time | N/A |
|---|---|
| Airport | Palma de Mallorca Airport (LEPA) |
| Time | Latitude | Longitude | Altitude | Speed | Heading |
|---|---|---|---|---|---|
| 2026-04-23 17:36 | 50.87833 | 7.12457 | 234 ft | 0 kts | 288° |
| 2026-04-23 19:11 | 50.87830 | 7.12474 | 232 ft | 4 kts | 287° |
| 2026-04-23 19:11 | 50.87821 | 7.12514 | 232 ft | 4 kts | 296° |
| 2026-04-23 19:11 | 50.87807 | 7.12549 | 235 ft | 4 kts | 322° |
| 2026-04-23 19:12 | 50.87787 | 7.12561 | 237 ft | 2 kts | 17° |
| 2026-04-23 19:12 | 50.87786 | 7.12560 | 237 ft | 0 kts | 18° |
| 2026-04-23 19:17 | 50.87802 | 7.12591 | 236 ft | 2 kts | 69° |
| 2026-04-23 19:17 | 50.87803 | 7.12617 | 232 ft | 5 kts | 90° |
| 2026-04-23 19:17 | 50.87762 | 7.12708 | 232 ft | 12 kts | 138° |
| 2026-04-23 19:17 | 50.87699 | 7.12799 | 232 ft | 12 kts | 137° |
| 2026-04-23 19:18 | 50.87641 | 7.12881 | 232 ft | 11 kts | 144° |
| 2026-04-23 19:18 | 50.87591 | 7.12956 | 232 ft | 9 kts | 135° |
| 2026-04-23 19:18 | 50.87544 | 7.13024 | 232 ft | 9 kts | 137° |
| 2026-04-23 19:18 | 50.87493 | 7.13098 | 232 ft | 12 kts | 138° |
| 2026-04-23 19:19 | 50.87325 | 7.13342 | 232 ft | 22 kts | 137° |
| 2026-04-23 19:19 | 50.87199 | 7.13523 | 240 ft | 25 kts | 137° |
| 2026-04-23 19:20 | 50.86940 | 7.13899 | 248 ft | 25 kts | 137° |
| 2026-04-23 19:20 | 50.86828 | 7.14061 | 255 ft | 17 kts | 138° |
| 2026-04-23 19:20 | 50.86779 | 7.14124 | 255 ft | 2 kts | 151° |
| 2026-04-23 19:20 | 50.86756 | 7.14135 | 255 ft | 7 kts | 163° |
| 2026-04-23 19:21 | 50.86704 | 7.14180 | 258 ft | 11 kts | 140° |
| 2026-04-23 19:21 | 50.86476 | 7.14510 | 268 ft | 28 kts | 136° |
| 2026-04-23 19:21 | 50.86336 | 7.14718 | 276 ft | 27 kts | 137° |
| 2026-04-23 19:22 | 50.86199 | 7.14915 | 284 ft | 26 kts | 138° |
| 2026-04-23 19:22 | 50.86064 | 7.15106 | 289 ft | 26 kts | 138° |
| 2026-04-23 19:22 | 50.85793 | 7.15498 | 300 ft | 27 kts | 137° |
| 2026-04-23 19:23 | 50.85657 | 7.15697 | 305 ft | 27 kts | 137° |
| 2026-04-23 19:23 | 50.85519 | 7.15899 | 307 ft | 25 kts | 137° |
| 2026-04-23 19:23 | 50.85506 | 7.16045 | 308 ft | 13 kts | 49° |
| 2026-04-23 19:24 | 50.85573 | 7.16150 | 309 ft | 0 kts | 46° |
| 2026-04-23 19:24 | 50.85617 | 7.16225 | 308 ft | 12 kts | 46° |
| 2026-04-23 19:25 | 50.85711 | 7.16297 | 309 ft | 8 kts | 319° |
| 2026-04-23 19:25 | 50.86489 | 7.15166 | 281 ft | 144 kts | 317° |
| 2026-04-23 19:26 | 50.88095 | 7.12851 | 1576 ft | 154 kts | 320° |
| 2026-04-23 19:26 | 50.88925 | 7.11646 | 2105 ft | 172 kts | 321° |
| 2026-04-23 19:27 | 50.90823 | 7.08863 | 3410 ft | 194 kts | 310° |
| 2026-04-23 19:27 | 50.90522 | 7.01920 | 5174 ft | 259 kts | 253° |
| 2026-04-23 19:28 | 50.89277 | 6.96261 | 6811 ft | 279 kts | 253° |
| 2026-04-23 19:28 | 50.87990 | 6.90358 | 8667 ft | 288 kts | 253° |
| 2026-04-23 19:29 | 50.87341 | 6.87337 | 9619 ft | 292 kts | 253° |
| 2026-04-23 19:29 | 50.86004 | 6.81042 | 10927 ft | 321 kts | 253° |
| 2026-04-23 19:30 | 50.84518 | 6.74052 | 12045 ft | 347 kts | 253° |
| 2026-04-23 19:30 | 50.83725 | 6.70360 | 12842 ft | 352 kts | 253° |
| 2026-04-23 19:30 | 50.82403 | 6.62879 | 14405 ft | 359 kts | 265° |
| 2026-04-23 19:31 | 50.82328 | 6.58928 | 15096 ft | 361 kts | 274° |
| 2026-04-23 19:31 | 50.82387 | 6.54936 | 15809 ft | 365 kts | 273° |
| 2026-04-23 19:31 | 50.82442 | 6.50905 | 16515 ft | 368 kts | 273° |
| 2026-04-23 19:31 | 50.82494 | 6.46834 | 17206 ft | 373 kts | 273° |
| 2026-04-23 19:32 | 50.82541 | 6.42712 | 17889 ft | 377 kts | 272° |
| 2026-04-23 19:32 | 50.82588 | 6.38548 | 18571 ft | 381 kts | 272° |
| 2026-04-23 19:32 | 50.82636 | 6.34338 | 19164 ft | 385 kts | 272° |
| 2026-04-23 19:32 | 50.82683 | 6.30079 | 19761 ft | 389 kts | 272° |
| 2026-04-23 19:33 | 50.82730 | 6.25787 | 20357 ft | 393 kts | 271° |
| 2026-04-23 19:33 | 50.82775 | 6.21447 | 20956 ft | 396 kts | 271° |
| 2026-04-23 19:33 | 50.82861 | 6.12666 | 22012 ft | 403 kts | 271° |
| 2026-04-23 19:34 | 50.82710 | 6.08227 | 22594 ft | 406 kts | 258° |
| 2026-04-23 19:34 | 50.81791 | 6.04004 | 23173 ft | 408 kts | 240° |
| 2026-04-23 19:34 | 50.77828 | 5.97763 | 24193 ft | 408 kts | 205° |
| 2026-04-23 19:35 | 50.75170 | 5.96311 | 24322 ft | 404 kts | 188° |
| 2026-04-23 19:35 | 50.72383 | 5.96171 | 24362 ft | 401 kts | 174° |
| 2026-04-23 19:35 | 50.69603 | 5.96529 | 24406 ft | 403 kts | 173° |
| 2026-04-23 19:35 | 50.66802 | 5.96906 | 24910 ft | 405 kts | 173° |
| 2026-04-23 19:36 | 50.63991 | 5.97286 | 25413 ft | 406 kts | 173° |
| 2026-04-23 19:36 | 50.61170 | 5.97657 | 25896 ft | 408 kts | 173° |
| 2026-04-23 19:36 | 50.58337 | 5.98018 | 26351 ft | 410 kts | 174° |
| 2026-04-23 19:36 | 50.55487 | 5.98376 | 26805 ft | 411 kts | 174° |
| 2026-04-23 19:37 | 50.52627 | 5.98729 | 27259 ft | 413 kts | 174° |
| 2026-04-23 19:37 | 50.49755 | 5.99076 | 27699 ft | 415 kts | 174° |
| 2026-04-23 19:37 | 50.46870 | 5.99425 | 28144 ft | 416 kts | 173° |
| 2026-04-23 19:37 | 50.43978 | 5.99781 | 28582 ft | 418 kts | 173° |
| 2026-04-23 19:38 | 50.41070 | 6.00147 | 29004 ft | 420 kts | 172° |
| 2026-04-23 19:38 | 50.38223 | 6.01057 | 29390 ft | 418 kts | 160° |
| 2026-04-23 19:38 | 50.35442 | 6.02475 | 29749 ft | 421 kts | 160° |
| 2026-04-23 19:38 | 50.32691 | 6.03895 | 30113 ft | 423 kts | 160° |
| 2026-04-23 19:39 | 50.29890 | 6.05358 | 30454 ft | 425 kts | 159° |
| 2026-04-23 19:39 | 50.27078 | 6.06836 | 30752 ft | 427 kts | 159° |
| 2026-04-23 19:39 | 50.24253 | 6.08317 | 31052 ft | 429 kts | 159° |
| 2026-04-23 19:39 | 50.21421 | 6.09793 | 31355 ft | 430 kts | 159° |
| 2026-04-23 19:40 | 50.18581 | 6.11263 | 31642 ft | 431 kts | 159° |
| 2026-04-23 19:40 | 50.15733 | 6.12729 | 31905 ft | 432 kts | 159° |
| 2026-04-23 19:40 | 50.12881 | 6.14192 | 32263 ft | 431 kts | 159° |
| 2026-04-23 19:40 | 50.10039 | 6.15648 | 32643 ft | 429 kts | 159° |
| 2026-04-23 19:41 | 50.07208 | 6.17102 | 33012 ft | 428 kts | 159° |
| 2026-04-23 19:41 | 50.04388 | 6.18554 | 33391 ft | 426 kts | 159° |
| 2026-04-23 19:41 | 50.01571 | 6.20002 | 33794 ft | 425 kts | 159° |
| 2026-04-23 19:41 | 49.98779 | 6.21437 | 34189 ft | 423 kts | 159° |
| 2026-04-23 19:42 | 49.95990 | 6.22864 | 34547 ft | 421 kts | 159° |
| 2026-04-23 19:42 | 49.93207 | 6.24285 | 34861 ft | 421 kts | 159° |
| 2026-04-23 19:42 | 49.90424 | 6.25701 | 35135 ft | 421 kts | 159° |
| 2026-04-23 19:42 | 49.87638 | 6.27119 | 35392 ft | 421 kts | 159° |
| 2026-04-23 19:43 | 49.84854 | 6.28537 | 35652 ft | 422 kts | 159° |
| 2026-04-23 19:43 | 49.82066 | 6.29954 | 35908 ft | 422 kts | 159° |
| 2026-04-23 19:43 | 49.79274 | 6.31371 | 36159 ft | 422 kts | 159° |
| 2026-04-23 19:43 | 49.76483 | 6.32790 | 36405 ft | 423 kts | 159° |
| 2026-04-23 19:44 | 49.73686 | 6.34213 | 36609 ft | 424 kts | 159° |
| 2026-04-23 19:44 | 49.70878 | 6.35636 | 36811 ft | 425 kts | 159° |
| 2026-04-23 19:44 | 49.68067 | 6.37062 | 37035 ft | 425 kts | 159° |
| 2026-04-23 19:44 | 49.65251 | 6.38486 | 37239 ft | 426 kts | 160° |
| 2026-04-23 19:45 | 49.62434 | 6.39905 | 37305 ft | 426 kts | 160° |
| 2026-04-23 19:45 | 49.56809 | 6.42726 | 37311 ft | 425 kts | 160° |
| 2026-04-23 19:46 | 49.51182 | 6.45545 | 37294 ft | 425 kts | 160° |
| 2026-04-23 19:46 | 49.45556 | 6.48362 | 37298 ft | 425 kts | 160° |
| 2026-04-23 19:47 | 49.40882 | 6.50703 | 37308 ft | 425 kts | 160° |
| 2026-04-23 19:47 | 49.34305 | 6.53991 | 37319 ft | 425 kts | 160° |
| 2026-04-23 19:48 | 49.28675 | 6.56801 | 37325 ft | 426 kts | 160° |
| 2026-04-23 19:48 | 49.23078 | 6.59571 | 37326 ft | 425 kts | 160° |
| 2026-04-23 19:49 | 49.17444 | 6.62353 | 37321 ft | 426 kts | 160° |
| 2026-04-23 19:49 | 49.11808 | 6.65138 | 37309 ft | 426 kts | 159° |